Time;durP1;ratioP1;P1;durP2;ratioP2;P2;SDS_P1;SDS_P2;PMS_P1;PMS_P2;Temp;Humidity;BMP_temperature;BMP_pressure;BME280_temperature;BME280_humidity;BME280_pressure;Samples;Min_cycle;Max_cycle;Signal;HPM_P1;HPM_P2
2022/12/06 00:00:39;;;;;;;11.93;4.63;;;;;;;1.14;100.00;102295.47;5077614;28;20412;-73
2022/12/06 00:03:05;;;;;;;14.45;4.65;;;;;;;1.18;100.00;102294.50;5095714;28;20043;-73
2022/12/06 00:05:30;;;;;;;11.23;4.60;;;;;;;1.21;100.00;102299.66;5095649;28;20027;-73
2022/12/06 00:07:56;;;;;;;16.48;5.03;;;;;;;1.19;100.00;102293.59;5078157;28;20083;-74
2022/12/06 00:10:21;;;;;;;15.07;4.38;;;;;;;1.18;100.00;102291.00;5095964;28;20465;-73
2022/12/06 00:12:47;;;;;;;14.82;4.18;;;;;;;1.19;100.00;102296.19;5095502;28;20044;-73
2022/12/06 00:15:12;;;;;;;12.85;4.32;;;;;;;1.16;100.00;102298.06;5077571;28;20032;-73
2022/12/06 00:17:38;;;;;;;7.13;3.63;;;;;;;1.11;100.00;102294.72;5077521;28;20055;-74
2022/12/06 00:20:05;;;;;;;10.07;3.97;;;;;;;1.12;100.00;102293.81;5095820;28;20448;-73
2022/12/06 00:22:30;;;;;;;10.55;4.10;;;;;;;1.15;100.00;102288.47;5094819;28;20032;-74
2022/12/06 00:24:55;;;;;;;15.25;4.38;;;;;;;1.12;100.00;102288.56;5095522;28;20035;-73
2022/12/06 00:27:21;;;;;;;12.63;3.90;;;;;;;1.06;100.00;102284.38;5095204;28;20040;-73
2022/12/06 00:29:47;;;;;;;13.63;4.25;;;;;;;1.02;100.00;102283.56;5095454;28;20489;-74
2022/12/06 00:32:12;;;;;;;7.63;3.80;;;;;;;1.00;100.00;102281.88;5095091;28;20032;-73
2022/12/06 00:34:38;;;;;;;12.30;4.25;;;;;;;0.99;100.00;102290.69;5095015;28;20046;-73
2022/12/06 00:37:03;;;;;;;10.38;4.38;;;;;;;1.02;100.00;102285.34;5095386;28;20105;-74
2022/12/06 00:39:28;;;;;;;11.48;4.47;;;;;;;1.06;100.00;102284.38;5076980;28;20036;-72
2022/12/06 00:41:55;;;;;;;14.10;4.88;;;;;;;1.05;100.00;102280.00;5094801;28;20028;-72
2022/12/06 00:44:20;;;;;;;13.27;4.70;;;;;;;1.01;100.00;102283.63;5095360;28;20032;-72
2022/12/06 00:46:46;;;;;;;12.05;4.30;;;;;;;0.94;100.00;102282.06;5094793;28;20122;-72
2022/12/06 00:49:12;;;;;;;13.48;3.80;;;;;;;0.93;100.00;102280.38;5094392;28;20111;-72
2022/12/06 00:51:38;;;;;;;13.68;4.47;;;;;;;0.95;100.00;102281.16;5094737;28;20055;-72
2022/12/06 00:54:04;;;;;;;13.20;4.47;;;;;;;0.97;100.00;102285.47;5094680;28;20046;-73
2022/12/06 00:56:30;;;;;;;11.38;4.20;;;;;;;1.05;100.00;102280.00;5094705;28;20032;-72
2022/12/06 00:58:56;;;;;;;9.98;4.72;;;;;;;1.16;100.00;102285.81;5094415;28;20028;-71
2022/12/06 01:01:24;;;;;;;11.70;4.30;;;;;;;1.29;100.00;102286.31;5094500;28;20384;-73
2022/12/06 01:03:52;;;;;;;13.10;4.97;;;;;;;1.44;100.00;102285.03;5094947;28;20055;-73
2022/12/06 01:06:21;;;;;;;12.38;4.35;;;;;;;1.59;100.00;102281.09;5094444;28;20040;-73
2022/12/06 01:08:47;;;;;;;14.15;3.95;;;;;;;1.69;100.00;102282.53;5094203;28;20036;-73
2022/12/06 01:11:14;;;;;;;11.32;4.32;;;;;;;1.79;100.00;102274.38;5094290;28;20039;-73
2022/12/06 01:13:39;;;;;;;12.48;4.47;;;;;;;1.85;100.00;102282.06;5094548;28;20036;-73
2022/12/06 01:16:14;;;;;;;14.55;4.55;;;;;;;1.86;100.00;102271.50;5094141;28;20024;-72
2022/12/06 01:18:40;;;;;;;7.15;3.55;;;;;;;1.87;100.00;102277.66;5093822;28;20073;-73
2022/12/06 01:21:08;;;;;;;9.88;3.72;;;;;;;1.87;100.00;102270.63;5094451;28;20032;-73
2022/12/06 01:23:33;;;;;;;8.98;3.20;;;;;;;1.87;100.00;102275.88;5093895;28;20046;-73
2022/12/06 01:25:59;;;;;;;13.05;3.60;;;;;;;1.88;100.00;102272.34;5093855;28;20032;-73
2022/12/06 01:28:24;;;;;;;15.40;3.50;;;;;;;1.90;100.00;102275.78;5093633;28;20392;-72
2022/12/06 01:30:49;;;;;;;9.10;3.30;;;;;;;1.92;100.00;102273.09;5093949;28;20028;-72
2022/12/06 01:33:15;;;;;;;12.32;3.90;;;;;;;1.91;100.00;102268.75;5076047;28;20349;-72
2022/12/06 01:35:41;;;;;;;5.68;3.00;;;;;;;1.90;100.00;102273.16;5094508;28;20091;-73
2022/12/06 01:38:07;;;;;;;8.20;3.40;;;;;;;1.89;100.00;102274.03;5098259;28;20035;-73
2022/12/06 01:40:38;;;;;;;11.15;3.55;;;;;;;1.89;100.00;102281.06;5094744;28;20036;-73
2022/12/06 01:43:04;;;;;;;8.65;3.05;;;;;;;1.88;100.00;102274.09;5075849;28;20028;-73
2022/12/06 01:45:30;;;;;;;6.75;2.72;;;;;;;1.87;100.00;102273.25;5094055;28;20130;-74
2022/12/06 01:47:56;;;;;;;9.68;3.03;;;;;;;1.85;100.00;102276.81;5094648;28;20392;-73
2022/12/06 01:50:28;;;;;;;10.23;3.20;;;;;;;1.81;100.00;102275.19;5093623;28;20117;-73
2022/12/06 01:53:03;;;;;;;10.85;3.25;;;;;;;1.82;100.00;102276.91;5093650;28;20047;-73
2022/12/06 01:55:33;;;;;;;8.68;3.05;;;;;;;1.76;100.00;102270.97;5093293;28;20028;-73
2022/12/06 01:58:05;;;;;;;6.28;2.70;;;;;;;1.67;100.00;102267.75;5093734;28;20043;-72
2022/12/06 02:00:31;;;;;;;11.73;3.20;;;;;;;1.55;100.00;102268.97;5093913;28;20474;-76
2022/12/06 02:03:00;;;;;;;4.25;2.38;;;;;;;1.44;100.00;102265.81;5093593;28;20028;-73
2022/12/06 02:05:26;;;;;;;9.40;3.33;;;;;;;1.33;100.00;102273.97;5093303;28;20448;-72
2022/12/06 02:07:53;;;;;;;7.38;2.60;;;;;;;1.28;100.00;102270.63;5093010;28;20099;-73
2022/12/06 02:10:18;;;;;;;6.50;2.70;;;;;;;1.27;100.00;102269.78;5093121;28;20040;-72
2022/12/06 02:12:48;;;;;;;7.55;2.95;;;;;;;1.32;100.00;102269.66;5093358;28;20354;-72
2022/12/06 02:15:14;;;;;;;7.10;3.13;;;;;;;1.36;100.00;102268.66;5093431;28;20073;-73
2022/12/06 02:17:54;;;;;;;9.77;3.00;;;;;;;1.41;100.00;102264.13;5093160;28;20032;-72
2022/12/06 02:20:28;;;;;;;7.10;3.08;;;;;;;1.47;100.00;102265.72;5075787;28;20554;-72
2022/12/06 02:23:09;;;;;;;9.38;3.33;;;;;;;1.54;100.00;102262.03;5093611;28;20149;-73
2022/12/06 02:25:59;;;;;;;7.93;3.20;;;;;;;1.56;100.00;102266.28;5093310;28;20028;-76
2022/12/06 02:28:36;;;;;;;7.05;3.13;;;;;;;1.60;100.00;102264.47;5093709;28;20042;-73
2022/12/06 02:31:32;;;;;;;5.60;3.20;;;;;;;1.64;100.00;102260.81;5093798;28;20032;-73
2022/12/06 02:34:17;;;;;;;14.55;3.45;;;;;;;1.71;100.00;102266.75;5093523;28;20024;-74
2022/12/06 02:36:45;;;;;;;12.82;3.70;;;;;;;1.80;100.00;102257.75;5096423;28;20131;-73
2022/12/06 02:39:18;;;;;;;9.00;3.58;;;;;;;1.85;100.00;102253.19;5079784;28;20039;-73
2022/12/06 02:41:50;;;;;;;11.55;3.45;;;;;;;1.89;100.00;102253.03;5078934;28;20028;-73
2022/12/06 02:44:25;;;;;;;13.80;3.50;;;;;;;1.94;100.00;102266.91;5097777;28;20028;-73
2022/12/06 02:46:52;;;;;;;9.90;3.50;;;;;;;1.96;100.00;102250.22;5097191;28;20119;-73
2022/12/06 02:49:19;;;;;;;11.13;3.20;;;;;;;1.98;100.00;102256.28;5078993;28;20476;-73
2022/12/06 02:51:46;;;;;;;7.38;3.95;;;;;;;1.99;100.00;102258.03;5097037;28;20031;-74
2022/12/06 02:54:13;;;;;;;5.28;2.75;;;;;;;2.02;100.00;102250.06;5097514;28;20138;-73
2022/12/06 02:56:38;;;;;;;10.85;3.55;;;;;;;2.07;100.00;102256.84;5097072;28;20032;-76
2022/12/06 02:59:04;;;;;;;9.98;2.88;;;;;;;2.13;100.00;102252.31;5078953;28;20452;-73
2022/12/06 03:01:33;;;;;;;7.65;2.88;;;;;;;2.14;100.00;102257.53;5096699;28;20172;-73
2022/12/06 03:04:45;;;;;;;7.78;2.83;;;;;;;2.14;100.00;102252.28;5096623;28;20028;-73
2022/12/06 03:07:23;;;;;;;6.40;2.38;;;;;;;2.13;100.00;102249.69;5085067;28;20070;-73
2022/12/06 03:10:21;;;;;;;6.25;2.40;;;;;;;2.10;100.00;102246.25;5096952;28;20066;-72
2022/12/06 03:13:00;;;;;;;9.65;2.58;;;;;;;2.08;100.00;102241.97;5089600;28;20089;-73
2022/12/06 03:15:47;;;;;;;6.60;2.50;;;;;;;2.08;100.00;102249.84;5096877;28;20097;-73
2022/12/06 03:18:48;;;;;;;5.32;2.40;;;;;;;2.06;100.00;102249.91;5096764;28;20027;-73
2022/12/06 03:21:23;;;;;;;6.65;2.33;;;;;;;2.05;100.00;102248.16;5096515;28;20028;-73
2022/12/06 03:23:50;;;;;;;6.03;2.40;;;;;;;2.04;100.00;102250.84;5096674;28;20052;-74
2022/12/06 03:26:20;;;;;;;8.38;2.60;;;;;;;2.04;100.00;102254.31;5096482;28;20039;-73
2022/12/06 03:28:48;;;;;;;6.60;2.17;;;;;;;2.03;100.00;102251.75;5078693;28;20436;-74
2022/12/06 03:31:14;;;;;;;7.78;2.30;;;;;;;1.99;100.00;102251.00;5096003;28;20024;-73
2022/12/06 03:33:48;;;;;;;5.10;1.85;;;;;;;1.93;100.00;102256.44;5096496;28;20051;-73
2022/12/06 03:36:16;;;;;;;9.55;2.72;;;;;;;1.77;100.00;102254.28;5096658;28;20024;-73
2022/12/06 03:38:54;;;;;;;8.23;2.25;;;;;;;1.61;100.00;102254.81;5096088;28;20020;-73
2022/12/06 03:41:25;;;;;;;5.07;1.95;;;;;;;1.44;100.00;102253.56;5096036;28;20032;-72
2022/12/06 03:43:51;;;;;;;6.70;2.30;;;;;;;1.31;100.00;102258.28;5096023;28;20372;-72
2022/12/06 03:46:21;;;;;;;4.72;2.05;;;;;;;1.17;100.00;102258.69;5076919;28;20059;-75
2022/12/06 03:49:00;;;;;;;7.28;2.00;;;;;;;1.01;100.00;102249.53;5095198;28;20041;-73
2022/12/06 03:51:30;;;;;;;3.35;1.90;;;;;;;0.87;100.00;102252.56;5094460;28;20032;-72
2022/12/06 03:54:02;;;;;;;6.32;2.13;;;;;;;0.75;100.00;102255.47;5094637;28;20058;-72
2022/12/06 03:56:28;;;;;;;9.48;2.00;;;;;;;0.62;100.00;102247.94;5094265;28;20472;-73
2022/12/06 03:58:53;;;;;;;4.43;1.92;;;;;;;0.52;100.00;102251.72;5094504;28;20031;-73
2022/12/06 04:01:19;;;;;;;4.18;1.88;;;;;;;0.44;100.00;102259.75;5094293;28;20062;-72
2022/12/06 04:03:44;;;;;;;5.45;2.25;;;;;;;0.36;100.00;102253.88;5095063;28;20055;-72
2022/12/06 04:06:10;;;;;;;4.00;2.25;;;;;;;0.27;100.00;102249.72;5094633;28;20032;-72
2022/12/06 04:08:37;;;;;;;3.53;1.90;;;;;;;0.19;100.00;102251.66;5094676;28;20087;-72
2022/12/06 04:11:02;;;;;;;5.80;2.40;;;;;;;0.13;100.00;102249.19;5076364;28;20077;-73
2022/12/06 04:13:28;;;;;;;4.07;1.90;;;;;;;0.08;100.00;102259.78;5094375;28;20032;-72
2022/12/06 04:15:55;;;;;;;4.60;2.10;;;;;;;0.03;100.00;102256.41;5094345;28;20030;-73
2022/12/06 04:18:22;;;;;;;3.90;1.98;;;;;;;-0.02;100.00;102255.66;5094930;28;20085;-73
2022/12/06 04:23:37;;;;;;;3.15;1.83;;;;;;;-0.04;100.00;102255.69;5094247;28;20046;-71
2022/12/06 04:26:06;;;;;;;4.97;2.20;;;;;;;-0.02;100.00;102253.03;5093795;28;20043;-73
2022/12/06 04:39:28;;;;;;;2.72;1.92;;;;;;;0.03;100.00;102245.97;5078976;28;20396;-73
2022/12/06 04:44:42;;;;;;;2.97;1.98;;;;;;;0.18;100.00;102244.72;5065220;28;20037;-73
2022/12/06 04:47:08;;;;;;;4.55;2.00;;;;;;;0.25;100.00;102245.41;5055361;28;1117013;-73
2022/12/06 04:49:34;;;;;;;5.28;2.28;;;;;;;0.29;100.00;102247.91;5094884;28;20040;-73
2022/12/06 04:52:00;;;;;;;4.80;2.30;;;;;;;0.30;100.00;102240.91;5094790;28;20093;-73
2022/12/06 04:54:26;;;;;;;3.60;1.90;;;;;;;0.28;100.00;102237.47;5094714;28;20032;-73
2022/12/06 04:56:52;;;;;;;4.85;2.38;;;;;;;0.31;100.00;102237.41;5094664;28;20043;-73
2022/12/06 04:59:19;;;;;;;4.53;2.20;;;;;;;0.40;100.00;102236.31;5094322;28;20039;-73
2022/12/06 05:01:44;;;;;;;5.03;2.40;;;;;;;0.51;100.00;102231.69;5094735;28;20479;-73
2022/12/06 05:04:09;;;;;;;4.25;2.47;;;;;;;0.55;100.00;102225.44;5094554;28;20032;-73
2022/12/06 05:06:35;;;;;;;2.45;1.80;;;;;;;0.50;100.00;102233.41;5094178;28;20490;-73
2022/12/06 05:09:02;;;;;;;5.20;2.45;;;;;;;0.44;100.00;102230.97;5094319;28;20028;-74
2022/12/06 05:11:27;;;;;;;3.80;2.15;;;;;;;0.47;100.00;102232.66;5094317;28;20093;-73
2022/12/06 05:13:52;;;;;;;7.38;2.30;;;;;;;0.50;100.00;102235.19;5076700;28;20460;-73
2022/12/06 05:16:18;;;;;;;5.53;2.40;;;;;;;0.52;100.00;102223.78;5094259;28;20094;-73
2022/12/06 05:18:43;;;;;;;5.13;2.20;;;;;;;0.53;100.00;102219.38;5094450;28;20119;-73
2022/12/06 05:21:20;;;;;;;3.75;2.30;;;;;;;0.49;100.00;102226.47;5093717;28;20089;-73
2022/12/06 05:23:46;;;;;;;3.92;2.38;;;;;;;0.38;100.00;102227.66;5093893;28;20034;-73
2022/12/06 05:26:16;;;;;;;3.53;2.30;;;;;;;0.29;100.00;102232.22;5093995;28;20121;-73
2022/12/06 05:28:44;;;;;;;4.32;2.13;;;;;;;0.20;100.00;102231.59;5094095;28;20085;-73
2022/12/06 05:31:10;;;;;;;3.83;2.38;;;;;;;0.16;100.00;102226.44;5094265;28;20452;-74
2022/12/06 05:33:36;;;;;;;3.53;2.30;;;;;;;0.16;100.00;102230.78;5093695;28;20028;-73
2022/12/06 05:36:09;;;;;;;5.43;2.75;;;;;;;0.17;100.00;102229.91;5094314;28;20191;-73
2022/12/06 05:38:35;;;;;;;4.50;2.50;;;;;;;0.21;100.00;102230.69;5094922;28;20028;-73
2022/12/06 05:41:00;;;;;;;5.47;2.33;;;;;;;0.20;100.00;102226.34;5093611;28;20078;-74
2022/12/06 05:43:28;;;;;;;5.30;2.75;;;;;;;0.20;100.00;102219.34;5093900;28;20059;-73
2022/12/06 05:45:54;;;;;;;4.97;2.80;;;;;;;0.22;100.00;102227.16;5093507;28;20024;-73
2022/12/06 05:48:20;;;;;;;5.03;2.63;;;;;;;0.15;100.00;102224.72;5094555;28;20054;-74
2022/12/06 05:50:47;;;;;;;5.68;2.80;;;;;;;0.08;100.00;102230.13;5093701;28;20111;-73
2022/12/06 05:53:13;;;;;;;7.13;2.72;;;;;;;0.00;100.00;102222.47;5058838;28;20058;-74
2022/12/06 05:55:39;;;;;;;3.58;2.70;;;;;;;-0.04;100.00;102232.13;5093619;28;20429;-74
2022/12/06 05:58:04;;;;;;;4.90;2.60;;;;;;;-0.03;100.00;102227.75;5092992;28;20060;-74
2022/12/06 06:00:30;;;;;;;5.10;2.75;;;;;;;-0.02;100.00;102227.72;5094309;28;20039;-74
2022/12/06 06:02:55;;;;;;;6.45;3.03;;;;;;;0.02;100.00;102227.69;5093334;28;20024;-74
2022/12/06 06:05:21;;;;;;;5.47;2.85;;;;;;;0.04;100.00;102223.25;5075539;28;20047;-72
2022/12/06 06:07:46;;;;;;;10.75;3.50;;;;;;;0.03;100.00;102234.59;5093522;28;20043;-74
2022/12/06 06:10:11;;;;;;;6.13;2.95;;;;;;;0.02;100.00;102231.13;5093556;28;20024;-75
2022/12/06 06:12:37;;;;;;;6.43;2.97;;;;;;;0.02;100.00;102236.38;5094458;28;20073;-72
2022/12/06 06:15:05;;;;;;;5.03;3.08;;;;;;;0.04;100.00;102229.34;5093541;28;20111;-73
2022/12/06 06:17:32;;;;;;;6.65;3.13;;;;;;;0.06;100.00;102238.03;5075457;28;20493;-73
2022/12/06 06:19:57;;;;;;;4.05;3.10;;;;;;;-0.03;100.00;102236.50;5093610;28;20055;-72
2022/12/06 06:22:23;;;;;;;7.65;3.30;;;;;;;-0.11;100.00;102234.94;5093173;28;20464;-72
2022/12/06 06:24:50;;;;;;;5.72;3.40;;;;;;;-0.15;100.00;102238.53;5093163;28;20062;-73
2022/12/06 06:27:16;;;;;;;6.80;3.92;;;;;;;-0.23;100.00;102233.47;5093439;28;20037;-73
2022/12/06 06:29:41;;;;;;;6.80;3.10;;;;;;;-0.33;100.00;102229.34;5093734;28;20024;-73
2022/12/06 06:32:06;;;;;;;7.40;2.90;;;;;;;-0.45;100.00;102228.75;5092991;28;20028;-74
2022/12/06 06:34:32;;;;;;;7.38;2.97;;;;;;;-0.56;100.00;102226.34;5074696;28;20036;-72
2022/12/06 06:36:57;;;;;;;7.28;3.58;;;;;;;-0.66;100.00;102230.03;5093060;28;20074;-73
2022/12/06 06:39:22;;;;;;;7.80;3.70;;;;;;;-0.74;100.00;102226.75;5092763;28;20079;-72
2022/12/06 06:41:48;;;;;;;5.68;3.15;;;;;;;-0.82;100.00;102221.69;5092774;28;20376;-72
2022/12/06 06:44:13;;;;;;;6.10;3.10;;;;;;;-0.90;100.00;102232.28;5092914;28;20035;-73
2022/12/06 06:46:39;;;;;;;5.40;2.97;;;;;;;-1.00;100.00;102219.41;5074699;28;20048;-72
2022/12/06 06:49:04;;;;;;;8.73;3.65;;;;;;;-1.10;100.00;102224.84;5092885;28;20421;-72
2022/12/06 06:51:31;;;;;;;6.80;2.92;;;;;;;-1.17;100.00;102220.63;5074473;28;20091;-72
2022/12/06 06:53:57;;;;;;;4.45;2.80;;;;;;;-1.26;100.00;102218.19;5092835;28;20039;-72
2022/12/06 06:56:23;;;;;;;4.43;2.90;;;;;;;-1.32;100.00;102215.69;5093001;28;20388;-72
2022/12/06 06:58:48;;;;;;;6.63;3.00;;;;;;;-1.39;100.00;102209.72;5092542;28;20327;-72
2022/12/06 07:01:19;;;;;;;3.72;2.90;;;;;;;-1.44;100.00;102201.97;5092487;28;20563;-72
2022/12/06 07:03:45;;;;;;;6.00;3.42;;;;;;;-1.45;100.00;102208.09;5092431;28;20468;-73
2022/12/06 07:06:10;;;;;;;8.07;2.85;;;;;;;-1.49;100.00;102205.56;5092124;28;20032;-75
2022/12/06 07:08:38;;;;;;;10.35;3.88;;;;;;;-1.55;100.00;102206.53;5092254;28;20082;-73
2022/12/06 07:11:03;;;;;;;6.05;3.25;;;;;;;-1.58;100.00;102197.88;5092223;28;20115;-72
2022/12/06 07:13:30;;;;;;;8.98;3.42;;;;;;;-1.61;100.00;102204.91;5092503;28;20114;-72
2022/12/06 07:15:57;;;;;;;4.05;2.90;;;;;;;-1.64;100.00;102218.00;5092617;28;20040;-72
2022/12/06 07:18:22;;;;;;;4.45;3.03;;;;;;;-1.70;100.00;102210.28;5092801;28;20040;-72
2022/12/06 07:20:48;;;;;;;4.68;2.83;;;;;;;-1.72;100.00;102209.44;5074436;28;20389;-72
2022/12/06 07:23:14;;;;;;;7.13;2.90;;;;;;;-1.74;100.00;102203.38;5095699;28;20035;-73
2022/12/06 07:25:40;;;;;;;5.13;2.97;;;;;;;-1.79;100.00;102211.28;5077835;28;20046;-72
2022/12/06 07:28:05;;;;;;;6.38;2.88;;;;;;;-1.84;100.00;102207.03;5078598;28;20032;-72
2022/12/06 07:30:31;;;;;;;5.82;3.33;;;;;;;-1.89;100.00;102208.88;5078214;28;20032;-71
2022/12/06 07:32:57;;;;;;;3.92;3.00;;;;;;;-1.96;100.00;102208.97;5096474;28;20436;-71
2022/12/06 07:35:23;;;;;;;5.57;3.05;;;;;;;-1.98;100.00;102207.28;5096360;28;20039;-71
2022/12/06 07:37:49;;;;;;;5.80;3.30;;;;;;;-1.98;100.00;102215.09;5096217;28;20042;-71
2022/12/06 07:40:15;;;;;;;6.10;2.97;;;;;;;-1.97;100.00;102211.59;5095637;28;20217;-70
2022/12/06 07:45:25;;;;;;;7.22;3.25;;;;;;;-2.01;100.00;102213.38;5095859;28;20047;-73
2022/12/06 07:47:50;;;;;;;7.10;3.35;;;;;;;-2.03;100.00;102217.78;5077465;28;20048;-72
2022/12/06 07:50:21;;;;;;;5.75;2.83;;;;;;;-2.02;100.00;102229.06;5095974;28;20055;-73
2022/12/06 07:52:48;;;;;;;4.53;3.67;;;;;;;-1.97;100.00;102225.50;5096553;28;20409;-72
2022/12/06 07:55:14;;;;;;;8.00;3.70;;;;;;;-1.91;100.00;102228.88;5095788;28;20077;-72
2022/12/06 07:57:40;;;;;;;8.88;3.83;;;;;;;-1.88;100.00;102234.94;5095559;28;20456;-73
2022/12/06 08:00:08;;;;;;;6.15;3.60;;;;;;;-1.84;100.00;102231.38;5096214;28;20036;-72
2022/12/06 08:02:33;;;;;;;7.30;3.80;;;;;;;-1.81;100.00;102230.47;5095184;28;20085;-72
2022/12/06 08:04:58;;;;;;;7.53;3.50;;;;;;;-1.79;100.00;102233.94;5095617;28;20103;-72
2022/12/06 08:07:25;;;;;;;8.32;4.00;;;;;;;-1.80;100.00;102238.25;5095411;28;20096;-73
2022/12/06 08:09:52;;;;;;;7.63;3.75;;;;;;;-1.82;100.00;102232.22;5095202;28;20035;-73
2022/12/06 08:12:20;;;;;;;9.65;4.13;;;;;;;-1.81;100.00;102233.97;5095399;28;20036;-72
2022/12/06 08:14:47;;;;;;;6.80;3.92;;;;;;;-1.78;100.00;102235.63;5095508;28;20082;-73
2022/12/06 08:17:13;;;;;;;9.10;4.55;;;;;;;-1.68;100.00;102231.97;5095249;28;20032;-73
2022/12/06 08:19:38;;;;;;;9.05;5.00;;;;;;;-1.50;100.00;102229.94;5095172;28;20101;-73
2022/12/06 08:22:05;;;;;;;11.27;5.43;;;;;;;-1.30;100.00;102232.19;5077005;28;20088;-73
2022/12/06 08:24:30;;;;;;;11.50;5.82;;;;;;;-1.11;100.00;102228.31;5095254;28;20032;-73
2022/12/06 08:26:57;;;;;;;11.32;5.40;;;;;;;-0.93;100.00;102234.94;5095094;28;20042;-73
2022/12/06 08:29:22;;;;;;;12.10;5.88;;;;;;;-0.81;100.00;102240.81;5095007;28;20133;-76
2022/12/06 08:31:48;;;;;;;11.55;5.80;;;;;;;-0.72;100.00;102240.63;5095017;28;20032;-73
2022/12/06 08:34:14;;;;;;;18.73;9.52;;;;;;;-0.60;100.00;102239.50;5093886;28;20028;-73
2022/12/06 08:36:40;;;;;;;18.17;7.25;;;;;;;-0.43;100.00;102232.16;5094815;28;20039;-73
2022/12/06 08:39:07;;;;;;;16.52;7.03;;;;;;;-0.22;100.00;102243.91;5095182;28;20369;-73
2022/12/06 08:44:17;;;;;;;23.48;9.90;;;;;;;0.17;100.00;102236.00;5094907;28;20039;-73
2022/12/06 08:46:43;;;;;;;17.88;9.27;;;;;;;0.33;100.00;102236.47;5094926;28;20048;-72
2022/12/06 08:49:11;;;;;;;15.00;9.50;;;;;;;0.47;100.00;102233.50;5095347;28;20498;-72
2022/12/06 08:51:37;;;;;;;17.92;9.43;;;;;;;0.60;100.00;102236.66;5094734;28;20032;-73
2022/12/06 08:54:03;;;;;;;22.65;10.70;;;;;;;0.76;100.00;102228.38;5094655;28;20028;-73
2022/12/06 08:56:28;;;;;;;19.80;10.98;;;;;;;0.92;100.00;102234.91;5094346;28;20429;-73
2022/12/06 08:58:55;;;;;;;23.80;10.18;;;;;;;1.10;100.00;102235.31;5094225;28;20043;-72
2022/12/06 09:01:24;;;;;;;16.88;8.88;;;;;;;1.27;100.00;102233.06;5094501;28;20028;-72
2022/12/06 09:03:50;;;;;;;17.70;9.35;;;;;;;1.43;100.00;102238.72;5094983;28;20068;-72
2022/12/06 09:06:17;;;;;;;17.25;9.68;;;;;;;1.55;100.00;102242.72;5094113;28;20066;-72
2022/12/06 09:08:42;;;;;;;16.33;9.70;;;;;;;1.67;100.00;102244.13;5094263;28;20085;-73
2022/12/06 09:11:08;;;;;;;19.83;9.63;;;;;;;1.77;100.00;102242.94;5094302;28;20043;-74
2022/12/06 09:13:35;;;;;;;24.20;11.27;;;;;;;1.87;100.00;102236.50;5094623;28;20103;-72
2022/12/06 09:16:12;;;;;;;19.25;10.05;;;;;;;1.97;100.00;102241.44;5075863;28;20452;-71
2022/12/06 09:18:38;;;;;;;13.70;8.65;;;;;;;2.09;100.00;102239.28;5076465;28;20402;-72
2022/12/06 09:21:10;;;;;;;16.13;9.10;;;;;;;2.18;100.00;102235.50;5094780;28;20032;-72
2022/12/06 09:23:35;;;;;;;;;;;;;;;2.29;100.00;102240.41;5076185;28;20070;-72
2022/12/06 09:26:02;;;;;;;16.63;9.18;;;;;;;2.40;100.00;102233.00;5094035;28;19912;-71
2022/12/06 09:28:29;;;;;;;21.85;9.52;;;;;;;2.52;100.00;102238.75;5094254;28;20041;-72
2022/12/06 09:30:55;;;;;;;19.08;9.20;;;;;;;2.61;100.00;102234.06;5094204;28;20105;-73
2022/12/06 09:33:21;;;;;;;18.92;9.02;;;;;;;2.68;100.00;102232.06;5094189;28;20461;-73
2022/12/06 09:35:49;;;;;;;18.77;7.80;;;;;;;2.78;100.00;102233.47;5094006;28;20060;-73
2022/12/06 09:38:15;;;;;;;24.67;6.97;;;;;;;2.92;100.00;102234.72;5093554;28;20039;-73
2022/12/06 09:41:03;;;;;;;29.80;6.70;;;;;;;3.15;100.00;102244.41;5093710;28;20456;-72
2022/12/06 09:43:39;;;;;;;14.23;5.50;;;;;;;3.40;100.00;102246.13;5093926;28;20063;-72
2022/12/06 09:46:46;;;;;;;11.35;3.85;;;;;;;3.55;100.00;102249.94;5093692;28;20052;-72
2022/12/06 09:49:30;;;;;;;10.82;4.15;;;;;;;3.62;100.00;102252.28;5093878;28;20047;-72
2022/12/06 09:52:28;;;;;;;11.75;3.60;;;;;;;3.73;100.00;102251.00;5093478;28;20480;-71
2022/12/06 09:55:28;;;;;;;9.68;3.40;;;;;;;3.69;100.00;102250.28;5093555;28;20053;-71
2022/12/06 09:58:13;;;;;;;6.68;3.72;;;;;;;3.70;100.00;102249.34;5093569;28;20541;-72
2022/12/06 10:01:17;;;;;;;9.45;3.35;;;;;;;3.76;100.00;102248.25;5091502;28;20040;-72
2022/12/06 10:04:18;;;;;;;7.45;3.28;;;;;;;3.87;100.00;102241.63;5093884;28;20482;-72
2022/12/06 10:06:54;;;;;;;7.45;3.60;;;;;;;4.03;100.00;102239.25;4991474;28;20042;-72
2022/12/06 10:09:22;;;;;;;8.10;3.08;;;;;;;4.17;100.00;102230.78;5061723;28;20139;-72
2022/12/06 10:11:57;;;;;;;11.88;3.50;;;;;;;4.31;100.00;102226.72;5093307;28;20071;-72
2022/12/06 10:14:37;;;;;;;8.07;3.75;;;;;;;4.41;100.00;102223.63;5093555;28;20482;-72
2022/12/06 10:17:21;;;;;;;12.23;5.05;;;;;;;4.54;100.00;102220.47;5093374;28;20452;-72
2022/12/06 10:20:18;;;;;;;10.18;4.20;;;;;;;4.74;100.00;102224.88;5093311;28;20457;-73
2022/12/06 10:23:10;;;;;;;10.10;2.97;;;;;;;4.96;100.00;102222.16;5093153;28;20028;-73
2022/12/06 10:26:15;;;;;;;10.63;2.85;;;;;;;5.16;100.00;102221.22;5088108;28;20055;-71
2022/12/06 10:28:58;;;;;;;7.72;2.65;;;;;;;5.29;100.00;102205.69;5011500;28;20404;-72
2022/12/06 10:31:33;;;;;;;7.45;2.95;;;;;;;5.37;100.00;102214.09;5086304;28;20040;-72
2022/12/06 10:34:25;;;;;;;8.65;4.22;;;;;;;5.48;100.00;102209.19;5092858;28;20028;-72
2022/12/06 10:37:12;;;;;;;7.80;3.70;;;;;;;5.73;100.00;102207.16;5093159;28;20028;-72
2022/12/06 10:39:51;;;;;;;9.10;2.65;;;;;;;5.80;100.00;102204.13;5093064;28;20120;-72
2022/12/06 10:42:39;;;;;;;10.10;2.80;;;;;;;5.89;100.00;102202.84;5093468;28;20032;-71
2022/12/06 10:48:13;;;;;;;10.40;2.88;;;;;;;6.09;100.00;102190.44;5093143;28;20117;-72
2022/12/06 10:50:42;;;;;;;8.70;3.20;;;;;;;6.03;100.00;102183.72;5093569;28;20040;-72
2022/12/06 10:53:15;;;;;;;18.13;3.55;;;;;;;5.89;100.00;102194.91;5095493;28;20036;-72
2022/12/06 10:55:48;;;;;;;17.08;3.30;;;;;;;5.80;100.00;102180.34;5096918;28;20111;-72
2022/12/06 10:58:29;;;;;;;11.48;3.75;;;;;;;5.67;100.00;102187.16;5099552;28;20028;-72
2022/12/06 11:00:59;;;;;;;10.55;3.85;;;;;;;5.69;100.00;102185.31;5079017;28;20097;-72
2022/12/06 11:03:40;;;;;;;7.80;3.53;;;;;;;5.76;100.00;102188.50;5096906;28;20478;-72
2022/12/06 11:06:24;;;;;;;9.18;3.50;;;;;;;5.80;100.00;102184.78;5097169;28;20384;-72
2022/12/06 11:09:27;;;;;;;8.73;3.67;;;;;;;5.79;100.00;102186.59;5096837;28;20073;-72
2022/12/06 11:11:52;;;;;;;13.88;3.85;;;;;;;5.78;100.00;102182.22;5080398;28;20115;-71
2022/12/06 11:14:27;;;;;;;5.45;3.30;;;;;;;5.76;100.00;102185.88;5096505;28;20036;-71
2022/12/06 11:16:54;;;;;;;9.25;2.92;;;;;;;5.82;100.00;102183.81;5096424;28;20035;-72
2022/12/06 11:19:48;;;;;;;8.02;2.85;;;;;;;5.99;100.00;102176.84;5096483;28;20050;-72
2022/12/06 11:22:25;;;;;;;10.68;3.50;;;;;;;6.50;100.00;102171.63;5095250;28;20074;-72
2022/12/06 11:25:12;;;;;;;9.60;2.58;;;;;;;6.94;100.00;102175.50;5096677;28;20030;-72
2022/12/06 11:27:52;;;;;;;5.10;2.28;;;;;;;7.28;100.00;102166.56;5096620;28;20103;-72
2022/12/06 11:30:19;;;;;;;8.10;2.72;;;;;;;7.41;100.00;102166.75;5096834;28;20027;-72
2022/12/06 11:32:50;;;;;;;7.90;3.22;;;;;;;7.48;100.00;102154.00;5096236;28;20036;-74
2022/12/06 11:35:20;;;;;;;5.18;2.55;;;;;;;7.79;100.00;102153.09;5096552;28;20032;-72
2022/12/06 11:37:46;;;;;;;6.25;2.40;;;;;;;8.30;100.00;102150.97;5096363;28;20441;-72
2022/12/06 11:40:24;;;;;;;5.45;2.38;;;;;;;8.45;100.00;102151.03;5096470;28;20100;-72
2022/12/06 11:42:50;;;;;;;7.82;2.15;;;;;;;8.43;100.00;102151.09;5096580;28;20035;-72
2022/12/06 11:45:25;;;;;;;5.60;2.20;;;;;;;8.34;100.00;102154.28;5096981;28;20032;-73
2022/12/06 11:48:00;;;;;;;3.78;1.45;;;;;;;8.06;100.00;102155.06;5096034;28;20102;-73
2022/12/06 11:50:29;;;;;;;3.90;1.60;;;;;;;7.86;100.00;102148.31;5095887;28;20459;-71
2022/12/06 11:53:12;;;;;;;5.15;1.17;;;;;;;7.76;100.00;102145.31;5095542;28;20032;-72
2022/12/06 11:55:49;;;;;;;2.80;0.80;;;;;;;7.79;100.00;102142.50;5096151;28;20028;-72
2022/12/06 11:58:50;;;;;;;4.38;0.77;;;;;;;7.77;100.00;102155.81;5095925;28;20028;-71
2022/12/06 12:01:15;;;;;;;0.98;0.55;;;;;;;7.51;100.00;102159.13;5091735;28;20127;-72